createdAt,value
2019-03-17T00:01:16.592Z,85.58
2019-03-17T00:03:48.115Z,85.77
2019-03-17T00:06:19.735Z,85.90
2019-03-17T00:08:50.815Z,85.78
2019-03-17T00:11:22.017Z,85.94
2019-03-17T00:13:53.112Z,86.73
2019-03-17T00:16:24.290Z,86.71
2019-03-17T00:18:55.524Z,86.82
2019-03-17T00:21:26.715Z,86.74
2019-03-17T00:23:57.893Z,86.74
2019-03-17T00:26:30.335Z,86.82
2019-03-17T00:29:01.590Z,86.57
2019-03-17T00:31:33.340Z,86.73
2019-03-17T00:34:04.588Z,87.28
2019-03-17T00:36:36.498Z,87.36
2019-03-17T00:39:07.742Z,87.33
2019-03-17T00:41:38.942Z,87.11
2019-03-17T00:44:10.182Z,87.68
2019-03-17T00:46:41.378Z,87.15
2019-03-17T00:49:12.495Z,87.03
2019-03-17T00:51:43.695Z,87.42
2019-03-17T00:54:15.132Z,86.88
2019-03-17T00:56:46.307Z,87.44
2019-03-17T00:59:17.505Z,87.12
2019-03-17T01:01:48.636Z,86.93
2019-03-17T01:04:19.833Z,87.02
2019-03-17T01:06:51.118Z,86.86
2019-03-17T01:09:22.761Z,86.47
2019-03-17T01:11:53.994Z,86.60
2019-03-17T01:14:25.191Z,86.46
2019-03-17T01:16:57.490Z,86.15
2019-03-17T01:19:28.653Z,86.26
2019-03-17T01:21:59.797Z,86.21
2019-03-17T01:24:31.054Z,86.59
2019-03-17T01:27:02.215Z,86.21
2019-03-17T01:29:34.874Z,86.48
2019-03-17T01:32:06.177Z,86.02
2019-03-17T01:34:37.395Z,85.90
2019-03-17T01:37:08.593Z,86.17
2019-03-17T01:39:39.746Z,86.16
2019-03-17T01:42:10.897Z,86.06
2019-03-17T01:44:42.125Z,86.05
2019-03-17T01:47:13.442Z,85.90
2019-03-17T01:49:44.743Z,86.31
2019-03-17T01:52:17.882Z,86.12
2019-03-17T01:54:48.010Z,86.27
2019-03-17T01:57:19.187Z,86.00
2019-03-17T01:59:50.342Z,86.24
2019-03-17T02:02:22.099Z,86.02
2019-03-17T02:04:53.538Z,86.42
2019-03-17T02:07:24.741Z,86.07
2019-03-17T02:09:55.901Z,85.81
2019-03-17T02:12:27.099Z,86.07
2019-03-17T02:14:58.338Z,85.76
2019-03-17T02:17:29.553Z,86.22
2019-03-17T02:20:00.859Z,85.72
2019-03-17T02:22:31.909Z,85.97
2019-03-17T02:25:03.086Z,85.79
2019-03-17T02:27:35.269Z,85.36
2019-03-17T02:30:11.789Z,86.12
2019-03-17T02:32:42.992Z,84.82
2019-03-17T02:35:14.136Z,85.46
2019-03-17T02:37:45.323Z,85.50
2019-03-17T02:40:16.677Z,85.47
2019-03-17T02:42:47.855Z,85.41
2019-03-17T02:45:19.094Z,85.23
2019-03-17T02:47:50.345Z,85.75
2019-03-17T02:50:22.498Z,84.84
2019-03-17T02:52:53.640Z,85.74
2019-03-17T02:55:24.768Z,85.33
2019-03-17T02:57:55.907Z,85.42
2019-03-17T03:00:27.121Z,85.09
2019-03-17T03:02:59.365Z,85.12
2019-03-17T03:05:30.581Z,84.82
2019-03-17T03:08:02.210Z,85.15
2019-03-17T03:10:33.463Z,83.21
2019-03-17T03:13:04.592Z,84.17
2019-03-17T03:15:35.734Z,83.75
2019-03-17T03:18:06.952Z,83.44
2019-03-17T03:20:38.128Z,84.08
2019-03-17T03:23:09.337Z,83.80
2019-03-17T03:25:40.601Z,84.16
2019-03-17T03:28:13.427Z,83.66
2019-03-17T03:30:44.633Z,83.83
2019-03-17T03:33:15.752Z,83.95
2019-03-17T03:35:46.923Z,83.83
2019-03-17T03:38:18.127Z,83.68
2019-03-17T03:40:50.331Z,83.57
2019-03-17T03:43:21.491Z,83.91
2019-03-17T03:45:52.674Z,83.75
2019-03-17T03:48:23.875Z,83.92
2019-03-17T03:50:55.077Z,83.40
2019-03-17T03:53:26.334Z,83.44
2019-03-17T03:55:57.490Z,83.29
2019-03-17T03:58:28.682Z,83.53
2019-03-17T04:00:59.795Z,83.40
2019-03-17T04:03:30.989Z,82.77
2019-03-17T04:06:02.162Z,82.79
2019-03-17T04:08:33.455Z,83.32
2019-03-17T04:11:04.658Z,82.79
2019-03-17T04:13:35.794Z,83.44
2019-03-17T04:16:06.873Z,83.27
2019-03-17T04:18:38.092Z,83.36
2019-03-17T04:21:09.323Z,83.88
2019-03-17T04:23:40.529Z,83.72
2019-03-17T04:26:11.734Z,83.69
2019-03-17T04:28:42.901Z,83.26
2019-03-17T04:31:14.643Z,83.20
2019-03-17T04:33:46.093Z,83.35
2019-03-17T04:36:17.250Z,83.20
2019-03-17T04:38:48.379Z,83.04
2019-03-17T04:41:19.465Z,83.57
2019-03-17T04:43:51.719Z,83.49
2019-03-17T04:46:22.897Z,82.72
2019-03-17T04:48:54.192Z,82.81
2019-03-17T04:51:26.598Z,82.52
2019-03-17T04:53:57.728Z,81.48
2019-03-17T04:56:30.002Z,82.13
2019-03-17T04:59:01.192Z,82.18
2019-03-17T05:01:32.433Z,81.93
2019-03-17T05:04:03.723Z,82.36
2019-03-17T05:06:34.857Z,82.86
2019-03-17T05:09:07.320Z,81.72
2019-03-17T05:11:38.412Z,81.26
2019-03-17T05:14:09.610Z,81.54
2019-03-17T05:16:40.711Z,81.64
2019-03-17T05:19:12.220Z,80.96
2019-03-17T05:21:43.481Z,80.89
2019-03-17T05:24:14.673Z,80.92
2019-03-17T05:26:45.875Z,80.76
2019-03-17T05:29:17.060Z,81.52
2019-03-17T05:31:48.242Z,80.14
2019-03-17T05:34:19.470Z,80.62
2019-03-17T05:36:50.701Z,79.49
2019-03-17T05:39:21.918Z,78.40
2019-03-17T05:41:53.732Z,77.79
2019-03-17T05:44:24.938Z,76.26
2019-03-17T05:46:56.074Z,76.52
2019-03-17T05:49:27.235Z,77.46
2019-03-17T05:51:58.558Z,77.10
2019-03-17T05:54:29.837Z,75.93
2019-03-17T05:57:01.391Z,74.42
2019-03-17T05:59:33.150Z,72.72
2019-03-17T06:02:04.807Z,71.41
2019-03-17T06:04:36.460Z,69.31
2019-03-17T06:07:18.243Z,69.94
2019-03-17T06:09:39.978Z,69.46
2019-03-17T06:12:11.635Z,67.37
2019-03-17T06:14:43.266Z,70.26
2019-03-17T06:17:14.646Z,71.37
2019-03-17T06:19:45.845Z,71.04
2019-03-17T06:22:17.535Z,73.17
2019-03-17T06:24:49.090Z,73.39
2019-03-17T06:27:20.749Z,73.54
2019-03-17T06:29:52.305Z,74.56
2019-03-17T06:32:24.060Z,74.50
2019-03-17T06:34:56.358Z,73.56
2019-03-17T06:37:31.198Z,74.39
2019-03-17T06:39:59.886Z,73.89
2019-03-17T06:42:31.193Z,73.02
2019-03-17T06:45:02.520Z,73.44
2019-03-17T06:47:33.712Z,75.55
2019-03-17T06:50:08.152Z,76.14
2019-03-17T06:52:40.352Z,74.30
2019-03-17T06:55:13.040Z,74.94
2019-03-17T06:57:44.299Z,73.12
2019-03-17T07:00:15.814Z,75.21
2019-03-17T07:02:47.031Z,73.52
2019-03-17T07:05:18.656Z,74.00
2019-03-17T07:07:50.210Z,73.41
2019-03-17T07:10:21.871Z,74.45
2019-03-17T07:12:53.522Z,74.25
2019-03-17T07:15:25.081Z,74.31
2019-03-17T07:17:56.289Z,74.32
2019-03-17T07:20:27.668Z,72.81
2019-03-17T07:22:59.065Z,74.00
2019-03-17T07:25:30.282Z,72.20
2019-03-17T07:28:01.506Z,73.13
2019-03-17T07:30:33.067Z,73.74
2019-03-17T07:33:04.279Z,71.87
2019-03-17T07:35:35.541Z,73.54
2019-03-17T07:38:07.110Z,73.83
2019-03-17T07:40:38.335Z,72.70
2019-03-17T07:43:09.543Z,73.07
2019-03-17T07:45:41.110Z,72.79
2019-03-17T07:48:13.969Z,70.45
2019-03-17T07:50:45.153Z,69.58
2019-03-17T07:53:16.693Z,68.63
2019-03-17T07:55:47.868Z,69.25
2019-03-17T07:58:19.100Z,67.73
2019-03-17T08:00:50.419Z,67.26
2019-03-17T08:03:21.563Z,68.36
2019-03-17T08:05:52.749Z,70.49
2019-03-17T08:08:23.961Z,69.26
2019-03-17T08:10:55.452Z,69.80
2019-03-17T08:13:27.007Z,71.26
2019-03-17T08:15:58.038Z,70.83
2019-03-17T08:18:29.297Z,71.52
2019-03-17T08:21:00.493Z,72.57
2019-03-17T08:23:31.656Z,73.07
2019-03-17T08:26:02.924Z,71.46
2019-03-17T08:28:34.154Z,72.61
2019-03-17T08:31:05.349Z,71.55
2019-03-17T08:33:36.502Z,71.68
2019-03-17T08:36:07.660Z,71.53
2019-03-17T08:38:38.820Z,71.89
2019-03-17T08:41:10.021Z,72.70
2019-03-17T08:43:53.513Z,73.35
2019-03-17T08:46:13.657Z,73.36
2019-03-17T08:48:45.093Z,74.02
2019-03-17T08:51:16.538Z,73.64
2019-03-17T08:53:48.184Z,73.04
2019-03-17T08:56:19.628Z,72.10
2019-03-17T08:58:51.277Z,70.99
2019-03-17T09:01:22.764Z,70.89
2019-03-17T09:03:55.925Z,69.92
2019-03-17T09:06:28.193Z,69.46
2019-03-17T09:08:59.540Z,69.95
2019-03-17T09:11:31.196Z,70.96
2019-03-17T09:14:02.701Z,70.37
2019-03-17T09:16:34.198Z,71.30
2019-03-17T09:19:05.707Z,71.21
2019-03-17T09:21:39.357Z,72.77
2019-03-17T09:24:17.186Z,73.28
2019-03-17T09:26:43.426Z,73.10
2019-03-17T09:29:14.475Z,72.32
2019-03-17T09:31:45.638Z,69.02
2019-03-17T09:34:16.734Z,66.13
2019-03-17T09:36:47.962Z,65.89
2019-03-17T09:39:19.219Z,65.98
2019-03-17T09:41:50.994Z,65.62
2019-03-17T09:44:22.133Z,65.83
2019-03-17T09:46:53.385Z,66.67
2019-03-17T09:49:24.695Z,65.71
2019-03-17T09:51:55.908Z,67.09
2019-03-17T09:54:27.222Z,67.58
2019-03-17T09:56:58.420Z,67.79
2019-03-17T09:59:29.621Z,66.52
2019-03-17T10:02:00.824Z,66.63
2019-03-17T10:04:32.221Z,65.58
2019-03-17T10:07:03.416Z,65.33
2019-03-17T10:09:34.616Z,62.92
2019-03-17T10:12:05.825Z,63.48
2019-03-17T10:14:37.022Z,61.98
2019-03-17T10:17:08.475Z,62.87
2019-03-17T10:19:39.582Z,65.49
2019-03-17T10:22:10.936Z,64.25
2019-03-17T10:24:42.142Z,65.37
2019-03-17T10:27:13.740Z,66.45
2019-03-17T10:29:44.941Z,66.22
2019-03-17T10:32:16.426Z,64.81
2019-03-17T10:34:47.619Z,64.38
2019-03-17T10:37:18.866Z,63.40
2019-03-17T10:39:50.261Z,63.62
2019-03-17T10:42:21.621Z,62.50
2019-03-17T10:44:52.772Z,62.48
2019-03-17T10:47:24.392Z,59.57
2019-03-17T10:49:56.047Z,62.28
2019-03-17T10:52:27.786Z,62.82
2019-03-17T10:54:59.250Z,64.05
2019-03-17T10:57:30.754Z,65.76
2019-03-17T11:00:02.459Z,66.92
2019-03-17T11:02:34.188Z,68.81
2019-03-17T11:05:06.707Z,68.31
2019-03-17T11:07:38.243Z,69.61
2019-03-17T11:10:11.443Z,69.59
2019-03-17T11:12:42.782Z,70.83
2019-03-17T11:15:19.563Z,69.09
2019-03-17T11:17:51.421Z,68.34
2019-03-17T11:20:22.821Z,67.88
2019-03-17T11:22:55.495Z,68.48
2019-03-17T11:25:27.288Z,67.62
2019-03-17T11:27:58.839Z,69.08
2019-03-17T11:30:30.168Z,68.39
2019-03-17T11:33:01.368Z,66.97
2019-03-17T11:35:32.598Z,65.48
2019-03-17T11:38:03.749Z,66.54
2019-03-17T11:40:34.871Z,65.88
2019-03-17T11:43:06.087Z,62.20
2019-03-17T11:45:38.770Z,59.00
2019-03-17T11:48:09.985Z,57.46
2019-03-17T11:50:41.309Z,55.65
2019-03-17T11:53:12.962Z,56.96
2019-03-17T11:55:44.496Z,60.98
2019-03-17T11:58:15.697Z,63.54
2019-03-17T12:00:47.208Z,63.61
2019-03-17T12:03:18.766Z,64.51
2019-03-17T12:05:50.470Z,67.05
2019-03-17T12:08:22.930Z,66.86
2019-03-17T12:10:54.087Z,68.80
2019-03-17T12:13:25.288Z,67.80
2019-03-17T12:15:56.503Z,69.30
2019-03-17T12:18:27.707Z,69.49
2019-03-17T12:20:58.963Z,69.51
2019-03-17T12:23:30.302Z,69.80
2019-03-17T12:26:02.847Z,69.93
2019-03-17T12:28:34.501Z,69.41
2019-03-17T12:31:05.949Z,69.72
2019-03-17T12:33:37.424Z,70.30
2019-03-17T12:36:08.626Z,70.66
2019-03-17T12:38:39.814Z,69.44
2019-03-17T12:41:10.966Z,68.63
2019-03-17T12:43:42.293Z,67.37
2019-03-17T12:46:13.461Z,67.18
2019-03-17T12:48:44.741Z,67.52
2019-03-17T12:51:16.027Z,66.24
2019-03-17T12:53:47.180Z,68.31
2019-03-17T12:56:18.346Z,68.21
2019-03-17T12:58:49.438Z,66.38
2019-03-17T13:01:20.646Z,67.30
2019-03-17T13:03:51.819Z,66.08
2019-03-17T13:06:23.246Z,67.19
2019-03-17T13:08:54.529Z,64.35
2019-03-17T13:11:25.723Z,64.63
2019-03-17T13:13:56.807Z,64.22
2019-03-17T13:16:27.909Z,65.38
2019-03-17T13:18:59.063Z,64.33
2019-03-17T13:21:30.269Z,66.33
2019-03-17T13:24:01.643Z,66.03
2019-03-17T13:26:32.757Z,67.17
2019-03-17T13:29:04.527Z,68.59
2019-03-17T13:31:36.063Z,68.73
2019-03-17T13:34:07.722Z,68.79
2019-03-17T13:36:39.378Z,68.93
2019-03-17T13:39:10.886Z,69.14
2019-03-17T13:41:42.438Z,69.71
2019-03-17T13:44:14.185Z,69.02
2019-03-17T13:46:46.184Z,69.76
2019-03-17T13:49:17.458Z,69.47
2019-03-17T13:51:49.011Z,69.07
2019-03-17T13:54:20.765Z,68.56
2019-03-17T13:56:52.205Z,69.02
2019-03-17T13:59:23.665Z,68.72
2019-03-17T14:01:55.321Z,69.46
2019-03-17T14:04:27.079Z,68.90
2019-03-17T14:06:58.427Z,68.66
2019-03-17T14:09:31.725Z,68.31
2019-03-17T14:12:02.204Z,68.74
2019-03-17T14:14:33.851Z,69.58
2019-03-17T14:17:05.565Z,68.94
2019-03-17T14:19:38.244Z,69.12
2019-03-17T14:22:10.104Z,69.18
2019-03-17T14:24:41.701Z,69.55
2019-03-17T14:27:12.902Z,69.92
2019-03-17T14:29:43.990Z,70.13
2019-03-17T14:32:15.199Z,69.98
2019-03-17T14:34:46.359Z,70.29
2019-03-17T14:37:17.600Z,70.88
2019-03-17T14:39:48.815Z,69.36
2019-03-17T14:42:21.303Z,69.45
2019-03-17T14:44:52.542Z,70.24
2019-03-17T14:47:23.735Z,70.67
2019-03-17T14:49:56.176Z,70.60
2019-03-17T14:52:28.680Z,70.58
2019-03-17T14:55:01.123Z,71.17
2019-03-17T14:57:32.871Z,71.27
2019-03-17T15:00:09.933Z,70.98
2019-03-17T15:02:41.410Z,70.97
2019-03-17T15:05:12.959Z,71.28
2019-03-17T15:07:44.400Z,71.14
2019-03-17T15:10:22.519Z,70.62
2019-03-17T15:12:54.150Z,70.92
2019-03-17T15:15:25.853Z,71.07
2019-03-17T15:17:57.847Z,70.84
2019-03-17T15:20:29.559Z,71.23
2019-03-17T15:23:01.110Z,71.27
2019-03-17T15:25:32.788Z,71.44
2019-03-17T15:28:04.150Z,71.94
2019-03-17T15:30:36.417Z,71.39
2019-03-17T15:33:08.063Z,71.15
2019-03-17T15:35:39.403Z,71.27
2019-03-17T15:38:10.717Z,71.78
2019-03-17T15:40:42.031Z,72.01
2019-03-17T15:43:13.219Z,72.24
2019-03-17T15:45:44.372Z,71.53
2019-03-17T15:48:15.538Z,72.02
2019-03-17T15:50:47.080Z,71.78
2019-03-17T15:53:19.859Z,71.93
2019-03-17T15:55:51.094Z,72.62
2019-03-17T15:58:22.265Z,72.55
2019-03-17T16:00:53.797Z,72.20
2019-03-17T16:03:27.407Z,72.14
2019-03-17T16:05:58.929Z,72.17
2019-03-17T16:08:30.266Z,71.93
2019-03-17T16:11:01.644Z,71.19
2019-03-17T16:13:34.719Z,70.42
2019-03-17T16:16:06.080Z,70.40
2019-03-17T16:18:37.530Z,70.40
2019-03-17T16:21:09.760Z,70.71
2019-03-17T16:23:40.914Z,69.71
2019-03-17T16:26:12.199Z,68.70
2019-03-17T16:28:45.181Z,68.55
2019-03-17T16:31:16.175Z,68.31
2019-03-17T16:33:47.677Z,68.00
2019-03-17T16:36:19.328Z,67.49
2019-03-17T16:38:50.881Z,67.79
2019-03-17T16:41:22.641Z,67.76
2019-03-17T16:43:54.231Z,68.05
2019-03-17T16:46:25.848Z,67.92
2019-03-17T16:48:57.392Z,67.45
2019-03-17T16:51:29.165Z,67.95
2019-03-17T16:54:00.408Z,67.47
2019-03-17T16:56:32.165Z,68.14
2019-03-17T16:59:04.338Z,67.93
2019-03-17T17:01:35.891Z,67.98
2019-03-17T17:04:09.056Z,68.29
2019-03-17T17:06:40.466Z,68.76
2019-03-17T17:09:12.090Z,68.50
2019-03-17T17:11:55.769Z,67.94
2019-03-17T17:14:19.765Z,68.43
2019-03-17T17:16:51.254Z,68.58
2019-03-17T17:19:22.903Z,69.67
2019-03-17T17:21:54.559Z,69.26
2019-03-17T17:24:26.062Z,70.03
2019-03-17T17:26:57.661Z,69.16
2019-03-17T17:29:29.327Z,69.60
2019-03-17T17:32:01.899Z,68.67
2019-03-17T17:34:33.427Z,69.05
2019-03-17T17:37:04.687Z,69.60
2019-03-17T17:39:35.963Z,68.94
2019-03-17T17:42:09.880Z,69.37
2019-03-17T17:44:40.142Z,69.53
2019-03-17T17:47:11.383Z,69.11
2019-03-17T17:49:42.775Z,68.76
2019-03-17T17:52:13.980Z,69.70
2019-03-17T17:54:45.164Z,69.22
2019-03-17T17:57:16.575Z,69.19
2019-03-17T17:59:47.851Z,69.28
2019-03-17T18:02:20.335Z,69.31
2019-03-17T18:04:52.806Z,69.74
2019-03-17T18:07:24.263Z,69.87
2019-03-17T18:09:55.811Z,70.20
2019-03-17T18:12:27.394Z,70.37
2019-03-17T18:14:59.104Z,70.57
2019-03-17T18:17:30.472Z,70.84
2019-03-17T18:20:03.058Z,71.03
2019-03-17T18:22:34.813Z,71.28
2019-03-17T18:25:09.580Z,71.53
2019-03-17T18:27:40.883Z,71.65
2019-03-17T18:30:15.170Z,71.53
2019-03-17T18:32:46.477Z,71.94
2019-03-17T18:35:17.828Z,72.00
2019-03-17T18:37:51.052Z,72.28
2019-03-17T18:40:23.162Z,72.17
2019-03-17T18:42:54.745Z,72.53
2019-03-17T18:45:28.829Z,72.62
2019-03-17T18:48:00.584Z,72.38
2019-03-17T18:50:32.204Z,72.63
2019-03-17T18:53:03.542Z,72.59
2019-03-17T18:55:34.844Z,72.91
2019-03-17T18:58:06.197Z,72.76
2019-03-17T19:00:38.044Z,73.04
2019-03-17T19:03:09.797Z,73.03
2019-03-17T19:05:41.553Z,73.18
2019-03-17T19:08:13.214Z,73.11
2019-03-17T19:10:46.500Z,73.30
2019-03-17T19:13:17.078Z,73.46
2019-03-17T19:15:48.487Z,73.37
2019-03-17T19:18:20.244Z,73.55
2019-03-17T19:20:51.805Z,73.79
2019-03-17T19:23:24.718Z,73.98
2019-03-17T19:25:56.437Z,74.05
2019-03-17T19:28:28.504Z,73.78
2019-03-17T19:30:59.752Z,73.79
2019-03-17T19:33:31.113Z,74.04
2019-03-17T19:36:02.444Z,74.00
2019-03-17T19:38:33.797Z,74.37
2019-03-17T19:41:05.540Z,74.43
2019-03-17T19:43:36.901Z,74.27
2019-03-17T19:46:08.661Z,74.29
2019-03-17T19:48:39.942Z,74.23
2019-03-17T19:51:11.380Z,74.46
2019-03-17T19:53:42.722Z,74.37
2019-03-17T19:56:14.071Z,74.50
2019-03-17T19:58:45.406Z,74.32
2019-03-17T20:01:16.675Z,74.49
2019-03-17T20:03:47.951Z,74.61
2019-03-17T20:06:19.243Z,74.67
2019-03-17T20:08:50.505Z,75.06
2019-03-17T20:11:21.846Z,75.00
2019-03-17T20:13:53.209Z,75.23
2019-03-17T20:16:24.571Z,75.17
2019-03-17T20:18:56.140Z,75.40
2019-03-17T20:21:27.462Z,75.11
2019-03-17T20:23:58.788Z,75.11
2019-03-17T20:26:30.122Z,75.17
2019-03-17T20:29:01.287Z,75.68
2019-03-17T20:31:32.562Z,75.70
2019-03-17T20:34:03.896Z,75.79
2019-03-17T20:36:35.223Z,75.90
2019-03-17T20:39:07.068Z,75.98
2019-03-17T20:41:38.435Z,75.95
2019-03-17T20:44:09.805Z,76.11
2019-03-17T20:46:41.124Z,76.12
2019-03-17T20:49:12.382Z,76.32
2019-03-17T20:51:43.661Z,76.46
2019-03-17T20:54:16.297Z,76.53
2019-03-17T20:56:47.648Z,76.71
2019-03-17T20:59:19.415Z,76.79
2019-03-17T21:01:51.007Z,76.71
2019-03-17T21:04:22.598Z,76.89
2019-03-17T21:06:54.376Z,77.00
2019-03-17T21:09:26.233Z,77.07
2019-03-17T21:11:57.565Z,76.88
2019-03-17T21:14:28.888Z,76.92
2019-03-17T21:17:00.251Z,76.89
2019-03-17T21:19:31.740Z,76.98
2019-03-17T21:22:03.030Z,76.78
2019-03-17T21:24:34.320Z,76.96
2019-03-17T21:27:05.837Z,77.08
2019-03-17T21:29:37.062Z,77.21
2019-03-17T21:32:08.410Z,77.09
2019-03-17T21:34:39.635Z,77.13
2019-03-17T21:37:10.955Z,77.43
2019-03-17T21:39:42.294Z,77.67
2019-03-17T21:42:13.872Z,77.69
2019-03-17T21:44:45.621Z,77.66
2019-03-17T21:47:17.485Z,78.04
2019-03-17T21:49:49.242Z,78.20
2019-03-17T21:52:21.001Z,78.20
2019-03-17T21:54:53.678Z,78.48
2019-03-17T21:57:25.013Z,78.56
2019-03-17T21:59:56.582Z,78.79
2019-03-17T22:02:28.354Z,78.92
2019-03-17T22:05:00.050Z,79.23
2019-03-17T22:07:31.745Z,79.59
2019-03-17T22:10:03.158Z,79.49
2019-03-17T22:12:34.489Z,79.42
2019-03-17T22:15:11.085Z,79.50
2019-03-17T22:17:42.469Z,79.59
2019-03-17T22:20:15.386Z,79.42
2019-03-17T22:22:46.617Z,79.31
2019-03-17T22:25:18.049Z,79.37
2019-03-17T22:27:49.394Z,79.51
2019-03-17T22:30:21.523Z,79.54
2019-03-17T22:32:52.919Z,79.41
2019-03-17T22:35:24.725Z,79.61
2019-03-17T22:37:56.432Z,79.78
2019-03-17T22:40:28.190Z,79.79
2019-03-17T22:42:59.950Z,79.47
2019-03-17T22:45:31.712Z,79.90
2019-03-17T22:48:03.465Z,79.57
2019-03-17T22:50:35.117Z,79.64
2019-03-17T22:53:06.876Z,79.59
2019-03-17T22:55:38.533Z,79.37
2019-03-17T22:58:10.294Z,79.47
2019-03-17T23:00:43.074Z,79.59
2019-03-17T23:03:14.479Z,80.05
2019-03-17T23:05:45.740Z,79.81
2019-03-17T23:08:17.425Z,79.92
2019-03-17T23:10:48.762Z,79.79
2019-03-17T23:13:20.122Z,79.99
2019-03-17T23:15:51.789Z,79.70
2019-03-17T23:18:23.546Z,79.40
2019-03-17T23:20:55.464Z,79.31
2019-03-17T23:23:26.821Z,79.54
2019-03-17T23:25:58.187Z,79.17
2019-03-17T23:28:29.504Z,78.83
2019-03-17T23:31:00.927Z,78.85
2019-03-17T23:33:32.229Z,78.76
2019-03-17T23:36:03.556Z,79.01
2019-03-17T23:38:35.848Z,79.23
2019-03-17T23:41:07.127Z,78.43
2019-03-17T23:43:38.373Z,78.59
2019-03-17T23:46:09.679Z,78.38
2019-03-17T23:48:40.931Z,78.50
2019-03-17T23:51:12.198Z,78.43
2019-03-17T23:53:43.507Z,78.50
2019-03-17T23:56:14.955Z,78.97
2019-03-17T23:58:46.311Z,78.60
